ADDS METAR Data INFO
IDs: Format: Raw Decoded Include TAF

Data at: 2314 UTC 15 Jul 2018

KDPA 152252Z 27005KT 10SM FEW034 SCT041 BKN060 31/23 A2992 RMK AO2 SLP127 T03060228
KDPA 152152Z 22007KT 10SM BKN040 BKN050 OVC100 31/23 A2994 RMK AO2 RAB03E14 SLP132 P0000 T03110228
KDPA 152052Z 25006KT 10SM FEW039 BKN065 OVC100 30/22 A2995 RMK AO2 SLP135 T03000222 56014
KDPA 151952Z 23009KT 10SM BKN038 BKN065 31/22 A2996 RMK AO2 SLP138 T03110222
KDPA 151852Z 23006KT 10SM BKN037 BKN044 OVC055 30/22 A2997 RMK AO2 SLP143 T03000222
KDPA 151752Z 22006KT 10SM BKN036 BKN043 29/22 A2999 RMK AO2 SLP148 T02890217 10300 20217 58001
KDPA 151652Z 23007KT 10SM FEW029 29/22 A2999 RMK AO2 SLP148 T02890217
KDPA 151552Z VRB03KT 10SM SCT026 BKN050 27/22 A2999 RMK AO2 SLP150 T02720217
KDPA 151540Z 25006KT 10SM FEW024 SCT050 28/22 A2999 RMK AO2 T02780217
KDPA 151533Z 24005KT 10SM BKN024 27/22 A2999 RMK AO2 T02720217
KDPA 151452Z 10SM FEW055 27/21 A2999 RMK AO2 SLP149 T02720211 58004
KDPA 151352Z 24004KT 9SM CLR 26/21 A3000 RMK AO2 SLP152 T02560211
KDPA 151252Z 00000KT 6SM CLR 24/22 A3000 RMK AO2 SLP153 T02390222
KDPA 151152Z 00000KT 8SM CLR 22/22 A3000 RMK AO2 SLP154 70022 T02170217 10217 20189 56003
KDPA 151111Z 00000KT 7SM MIFG CLR 19/19 A3001 RMK AO2 T01940194
KDPA 151106Z 00000KT M1/4SM MIFG VV002 19/19 A3001 RMK AO2 T01940194 RVRNO
KDPA 151059Z 00000KT 1/4SM MIFG SCT002 BKN055 19/19 A3001 RMK AO2 T01890189 RVRNO
KDPA 151052Z 00000KT 8SM MIFG CLR 20/20 A3001 RMK AO2 SLP156 T02000200
KDPA 151015Z 00000KT 8SM MIFG CLR 19/19 A3000 RMK AO2 T01940194
KDPA 150952Z 00000KT 1/4SM FG VV002 20/20 A3001 RMK AO2 SLP156 T02000200 RVRNO
KDPA 150928Z 00000KT 1/4SM FG VV002 19/19 A3001 RMK AO2 T01940194 RVRNO
KDPA 150920Z 00000KT 3/4SM BR VV002 20/20 A3001 RMK AO2 VIS 1/4V2 1/2 T02000200 RVRNO
KDPA 150911Z 00000KT 3/4SM BR CLR 21/21 A3001 RMK AO2 T02060206 RVRNO
KDPA 150852Z 00000KT 1SM BR CLR 21/21 A3001 RMK AO2 SLP159 T02110211 50005 RVRNO
KDPA 150806Z 28003KT 1 1/4SM BR SCT005 21/21 A3002 RMK AO2 T02060206
KDPA 150759Z 00000KT 1SM BR VV005 21/21 A3002 RMK AO2 T02110211 RVRNO
KDPA 150752Z 24004KT 1/4SM FG VV005 21/21 A3002 RMK AO2 SLP160 T02110211 RVRNO
KDPA 150740Z 00000KT 1/4SM FG VV005 21/21 A3002 RMK AO2 T02110211 RVRNO
KDPA 150725Z 00000KT 1/2SM FG CLR 22/21 A3002 RMK AO2 T02170211 RVRNO
KDPA 150716Z 00000KT 1/4SM FG VV003 21/21 A3001 RMK AO2 T02110211 RVRNO
KDPA 150710Z 00000KT 1/2SM FG CLR 21/21 A3001 RMK AO2 T02110211 RVRNO
KDPA 150652Z 00000KT 1 1/4SM BR CLR 22/22 A3001 RMK AO2 SLP157 T02170217
KDPA 150627Z 00000KT 1 3/4SM BR CLR 22/22 A3000 RMK AO2 T02220217
KDPA 150552Z 13003KT 2 1/2SM BR CLR 23/22 A3000 RMK AO2 SLP152 60008 T02280222 10272 20222 402720211 55006
KDPA 150452Z 17004KT 2 1/2SM BR CLR 23/22 A3000 RMK AO2 SLP153 T02280222
KDPA 150442Z 12005KT 2 1/2SM BR CLR 23/23 A2999 RMK AO2 T02330228
KDPA 150352Z 14003KT 3SM BR FEW070 BKN100 24/23 A3002 RMK AO2 RAE42 SLP158 P0008 T02390228
KDPA 150333Z 4SM -RA BR SCT025 BKN055 BKN065 24/23 A3001 RMK AO2 P0008 T02390228
KDPA 150322Z 00000KT 2SM RA BR FEW019 BKN025 OVC035 24/23 A3002 RMK AO2 P0008 T02390228
KDPA 150252Z 10004KT 5SM -RA BR BKN027 OVC036 24/23 A3002 RMK AO2 RAB50 SLP159 P0000 60000 T02440228 51003
KDPA 150152Z 11004KT 5SM BR FEW027 SCT075 24/23 A3002 RMK AO2 SLP160 T02440228
KDPA 150052Z 16004KT 7SM CLR 27/22 A3001 RMK AO2 SLP157 T02670222
KDPA 142352Z 10003KT 6SM HZ CLR 27/22 A3001 RMK AO2 SLP156 60000 T02670217 10272 20244 55004
KDPA 142252Z 08004KT 6SM HZ CLR 27/22 A2999 RMK AO2 SLP150 T02670217
KDPA 142152Z 00000KT 6SM HZ FEW025 27/22 A3001 RMK AO2 SLP155 T02670217
KDPA 142052Z 07006KT 6SM HZ FEW020 26/22 A3002 RMK AO2 RAE15 SLP160 P0000 60000 T02560217 58015
KDPA 141952Z 09004KT 6SM -RA FEW055 SCT070 BKN110 25/22 A3004 RMK AO2 RAB28 SLP165 P0000 T02500217
KDPA 141915Z 12005KT 7SM SCT018 BKN120 25/21 A3006 RMK AO2 T02500211
KDPA 141852Z 12008KT 7SM BKN016 25/22 A3007 RMK AO2 SLP175 T02500217
KDPA 141848Z 12006KT 7SM BKN016 BKN110 25/22 A3007 RMK AO2
KDPA 141836Z 12005KT 7SM BKN014 25/22 A3007 RMK AO2 T02500222
KDPA 141832Z 15004KT 6SM HZ SCT012 SCT017 BKN110 25/22 A3007 RMK AO2 T02500222
KDPA 141756Z 16007KT 7SM FEW009 SCT013 BKN018 25/23 A3007 RMK AO2 T02500228
KDPA 141752Z 12005KT 6SM BR SCT010 BKN014 BKN018 24/23 A3007 RMK AO2 RAE26 SLP178 P0001 60014 T02440228 10244 20211 50004
KDPA 141737Z 12005KT 6SM BR SCT008 BKN012 BKN025 23/23 A3007 RMK AO2 RAE26 P0001 T02330228
KDPA 141723Z 09005KT 6SM -RA BR FEW008 SCT029 BKN070 23/23 A3007 RMK AO2 P0001 T02330228
KDPA 141652Z 00000KT 4SM -RA BR FEW013 BKN042 OVC120 23/22 A3009 RMK AO2 RAB1557 SLP185 P0002 T02280222
KDPA 141552Z 00000KT 8SM SCT008 SCT029 BKN095 23/22 A3009 RMK AO2 RAB41E52 SLP183 P0000 T02330217
KDPA 141452Z 00000KT 8SM SCT006 23/22 A3006 RMK AO2 SLP173 60011 T02330217 58005
KDPA 141402Z 05003KT 6SM BR FEW004 FEW070 22/22 A3006 RMK AO2 T02170217
KDPA 141352Z 00000KT 6SM BR FEW070 22/22 A3006 RMK AO2 LTG DSNT S AND SW RAB22E33 SLP173 P0000 T02170217
KDPA 141252Z 00000KT 4SM BR SCT095 BKN110 22/22 A3008 RMK AO2 LTG DSNT SW RAE47 SLP179 P0011 T02170217
KDPA 141152Z 00000KT 4SM +RA BR BKN100 OVC120 21/21 A3007 RMK AO2 TSB19E34 SLP178 P0012 60013 70013 T02110211 10228 20211 50013
KDPA 141140Z 00000KT 3SM RA BR BKN100 OVC120 21/21 A3007 RMK AO2 LTG DSNT SW TSB19E34 P0009 T02110211
KDPA 141125Z 16005KT 3SM TSRA BR OVC110 22/21 A3008 RMK AO2 LTG DSNT SW TSB19 P0004 T02170211